sensor_id;sensor_type;location;lat;lon;timestamp;P1;durP1;ratioP1;P2;durP2;ratioP2
7104;SDS011;3594;42.152;24.714;2023-05-07T00:00:48;7.32;;;4.13;;
7104;SDS011;3594;42.152;24.714;2023-05-07T00:03:14;7.95;;;4.10;;
7104;SDS011;3594;42.152;24.714;2023-05-07T00:05:40;7.00;;;4.28;;
7104;SDS011;3594;42.152;24.714;2023-05-07T00:08:06;5.38;;;4.03;;
7104;SDS011;3594;42.152;24.714;2023-05-07T00:10:32;7.50;;;3.90;;
7104;SDS011;3594;42.152;24.714;2023-05-07T00:12:57;6.03;;;4.13;;
7104;SDS011;3594;42.152;24.714;2023-05-07T00:15:22;5.07;;;3.95;;
7104;SDS011;3594;42.152;24.714;2023-05-07T00:17:48;6.15;;;3.83;;
7104;SDS011;3594;42.152;24.714;2023-05-07T00:20:13;6.28;;;4.03;;
7104;SDS011;3594;42.152;24.714;2023-05-07T00:22:38;10.02;;;4.32;;
7104;SDS011;3594;42.152;24.714;2023-05-07T00:25:04;5.88;;;4.05;;
7104;SDS011;3594;42.152;24.714;2023-05-07T00:27:30;7.13;;;4.45;;
7104;SDS011;3594;42.152;24.714;2023-05-07T00:29:56;4.95;;;3.65;;
7104;SDS011;3594;42.152;24.714;2023-05-07T00:32:21;5.07;;;3.65;;
7104;SDS011;3594;42.152;24.714;2023-05-07T00:34:46;6.22;;;4.10;;
7104;SDS011;3594;42.152;24.714;2023-05-07T00:37:12;6.88;;;4.40;;
7104;SDS011;3594;42.152;24.714;2023-05-07T00:39:37;6.80;;;4.57;;
7104;SDS011;3594;42.152;24.714;2023-05-07T00:42:03;7.50;;;4.43;;
7104;SDS011;3594;42.152;24.714;2023-05-07T00:44:28;6.05;;;4.30;;
7104;SDS011;3594;42.152;24.714;2023-05-07T00:46:54;6.13;;;4.38;;
7104;SDS011;3594;42.152;24.714;2023-05-07T00:49:21;5.57;;;4.18;;
7104;SDS011;3594;42.152;24.714;2023-05-07T00:51:49;7.07;;;3.67;;
7104;SDS011;3594;42.152;24.714;2023-05-07T00:54:15;5.80;;;3.97;;
7104;SDS011;3594;42.152;24.714;2023-05-07T00:56:41;13.32;;;4.18;;
7104;SDS011;3594;42.152;24.714;2023-05-07T00:59:06;7.63;;;4.20;;
7104;SDS011;3594;42.152;24.714;2023-05-07T01:01:33;6.45;;;4.15;;
7104;SDS011;3594;42.152;24.714;2023-05-07T01:03:58;5.20;;;3.88;;
7104;SDS011;3594;42.152;24.714;2023-05-07T01:06:24;7.40;;;4.03;;
7104;SDS011;3594;42.152;24.714;2023-05-07T01:08:52;6.57;;;4.07;;
7104;SDS011;3594;42.152;24.714;2023-05-07T01:11:21;7.35;;;4.25;;
7104;SDS011;3594;42.152;24.714;2023-05-07T01:13:47;6.00;;;4.20;;
7104;SDS011;3594;42.152;24.714;2023-05-07T01:16:15;7.13;;;4.40;;
7104;SDS011;3594;42.152;24.714;2023-05-07T01:18:41;8.02;;;4.97;;
7104;SDS011;3594;42.152;24.714;2023-05-07T01:21:06;7.18;;;4.35;;
7104;SDS011;3594;42.152;24.714;2023-05-07T01:23:35;7.78;;;4.13;;
7104;SDS011;3594;42.152;24.714;2023-05-07T01:26:01;8.25;;;5.05;;
7104;SDS011;3594;42.152;24.714;2023-05-07T01:28:26;5.57;;;4.28;;
7104;SDS011;3594;42.152;24.714;2023-05-07T01:30:53;7.13;;;4.82;;
7104;SDS011;3594;42.152;24.714;2023-05-07T01:33:21;8.50;;;4.50;;
7104;SDS011;3594;42.152;24.714;2023-05-07T01:35:48;6.85;;;4.43;;
7104;SDS011;3594;42.152;24.714;2023-05-07T01:38:16;6.30;;;4.32;;
7104;SDS011;3594;42.152;24.714;2023-05-07T01:40:43;7.75;;;4.15;;
7104;SDS011;3594;42.152;24.714;2023-05-07T01:43:09;6.88;;;4.43;;
7104;SDS011;3594;42.152;24.714;2023-05-07T01:45:35;6.35;;;4.32;;
7104;SDS011;3594;42.152;24.714;2023-05-07T01:48:01;6.43;;;4.40;;
7104;SDS011;3594;42.152;24.714;2023-05-07T01:50:28;8.45;;;4.60;;
7104;SDS011;3594;42.152;24.714;2023-05-07T01:52:54;6.97;;;4.50;;
7104;SDS011;3594;42.152;24.714;2023-05-07T01:55:20;5.88;;;4.25;;
7104;SDS011;3594;42.152;24.714;2023-05-07T01:57:45;8.15;;;4.65;;
7104;SDS011;3594;42.152;24.714;2023-05-07T02:00:11;7.95;;;4.53;;
7104;SDS011;3594;42.152;24.714;2023-05-07T02:02:36;7.70;;;4.60;;
7104;SDS011;3594;42.152;24.714;2023-05-07T02:05:03;10.75;;;5.07;;
7104;SDS011;3594;42.152;24.714;2023-05-07T02:07:29;7.20;;;4.75;;
7104;SDS011;3594;42.152;24.714;2023-05-07T02:09:54;7.13;;;4.97;;
7104;SDS011;3594;42.152;24.714;2023-05-07T02:12:21;6.95;;;4.97;;
7104;SDS011;3594;42.152;24.714;2023-05-07T02:14:47;9.18;;;4.63;;
7104;SDS011;3594;42.152;24.714;2023-05-07T02:17:13;8.65;;;4.85;;
7104;SDS011;3594;42.152;24.714;2023-05-07T02:19:38;8.13;;;5.50;;
7104;SDS011;3594;42.152;24.714;2023-05-07T02:22:03;9.43;;;5.45;;
7104;SDS011;3594;42.152;24.714;2023-05-07T02:24:29;9.13;;;5.50;;
7104;SDS011;3594;42.152;24.714;2023-05-07T02:26:55;9.23;;;5.93;;
7104;SDS011;3594;42.152;24.714;2023-05-07T02:29:20;10.20;;;6.25;;
7104;SDS011;3594;42.152;24.714;2023-05-07T02:31:46;11.05;;;5.57;;
7104;SDS011;3594;42.152;24.714;2023-05-07T02:34:15;9.00;;;6.28;;
7104;SDS011;3594;42.152;24.714;2023-05-07T02:36:41;8.82;;;5.55;;
7104;SDS011;3594;42.152;24.714;2023-05-07T02:39:06;7.97;;;5.80;;
7104;SDS011;3594;42.152;24.714;2023-05-07T02:41:32;11.15;;;5.55;;
7104;SDS011;3594;42.152;24.714;2023-05-07T02:43:57;8.80;;;5.57;;
7104;SDS011;3594;42.152;24.714;2023-05-07T02:46:23;8.55;;;5.72;;
7104;SDS011;3594;42.152;24.714;2023-05-07T02:48:48;8.82;;;5.50;;
7104;SDS011;3594;42.152;24.714;2023-05-07T02:51:14;9.63;;;5.47;;
7104;SDS011;3594;42.152;24.714;2023-05-07T02:53:39;10.68;;;5.60;;
7104;SDS011;3594;42.152;24.714;2023-05-07T02:56:05;7.85;;;5.13;;
7104;SDS011;3594;42.152;24.714;2023-05-07T02:58:31;9.23;;;6.00;;
7104;SDS011;3594;42.152;24.714;2023-05-07T03:00:56;7.22;;;5.20;;
7104;SDS011;3594;42.152;24.714;2023-05-07T03:03:22;8.77;;;6.10;;
7104;SDS011;3594;42.152;24.714;2023-05-07T03:05:48;11.70;;;6.20;;
7104;SDS011;3594;42.152;24.714;2023-05-07T03:08:13;9.30;;;5.60;;
7104;SDS011;3594;42.152;24.714;2023-05-07T03:10:39;9.15;;;5.78;;
7104;SDS011;3594;42.152;24.714;2023-05-07T03:13:05;8.52;;;5.55;;
7104;SDS011;3594;42.152;24.714;2023-05-07T03:15:30;12.80;;;5.70;;
7104;SDS011;3594;42.152;24.714;2023-05-07T03:17:56;10.02;;;5.97;;
7104;SDS011;3594;42.152;24.714;2023-05-07T03:20:21;10.27;;;5.78;;
7104;SDS011;3594;42.152;24.714;2023-05-07T03:22:46;10.93;;;5.90;;
7104;SDS011;3594;42.152;24.714;2023-05-07T03:25:12;10.43;;;5.60;;
7104;SDS011;3594;42.152;24.714;2023-05-07T03:27:39;7.22;;;4.78;;
7104;SDS011;3594;42.152;24.714;2023-05-07T03:30:04;8.18;;;5.43;;
7104;SDS011;3594;42.152;24.714;2023-05-07T03:32:31;9.32;;;5.82;;
7104;SDS011;3594;42.152;24.714;2023-05-07T03:34:57;18.60;;;5.97;;
7104;SDS011;3594;42.152;24.714;2023-05-07T03:37:22;10.10;;;5.32;;
7104;SDS011;3594;42.152;24.714;2023-05-07T03:39:48;8.95;;;5.60;;
7104;SDS011;3594;42.152;24.714;2023-05-07T03:42:13;7.45;;;5.20;;
7104;SDS011;3594;42.152;24.714;2023-05-07T03:44:39;9.90;;;5.43;;
7104;SDS011;3594;42.152;24.714;2023-05-07T03:47:05;7.47;;;4.85;;
7104;SDS011;3594;42.152;24.714;2023-05-07T03:49:30;7.30;;;4.53;;
7104;SDS011;3594;42.152;24.714;2023-05-07T03:51:56;8.30;;;4.70;;
7104;SDS011;3594;42.152;24.714;2023-05-07T03:54:21;7.93;;;4.55;;
7104;SDS011;3594;42.152;24.714;2023-05-07T03:56:47;7.30;;;4.75;;
7104;SDS011;3594;42.152;24.714;2023-05-07T03:59:12;6.15;;;4.30;;
7104;SDS011;3594;42.152;24.714;2023-05-07T04:01:38;6.07;;;4.18;;
7104;SDS011;3594;42.152;24.714;2023-05-07T04:04:04;5.53;;;4.00;;
7104;SDS011;3594;42.152;24.714;2023-05-07T04:06:30;7.03;;;4.30;;
7104;SDS011;3594;42.152;24.714;2023-05-07T04:08:56;7.60;;;4.65;;
7104;SDS011;3594;42.152;24.714;2023-05-07T04:11:21;9.45;;;4.65;;
7104;SDS011;3594;42.152;24.714;2023-05-07T04:13:47;8.18;;;4.85;;
7104;SDS011;3594;42.152;24.714;2023-05-07T04:16:12;8.65;;;5.10;;
7104;SDS011;3594;42.152;24.714;2023-05-07T04:18:37;8.15;;;4.57;;
7104;SDS011;3594;42.152;24.714;2023-05-07T04:21:03;7.55;;;4.47;;
7104;SDS011;3594;42.152;24.714;2023-05-07T04:23:29;8.73;;;4.70;;
7104;SDS011;3594;42.152;24.714;2023-05-07T04:25:54;10.48;;;5.05;;
7104;SDS011;3594;42.152;24.714;2023-05-07T04:28:20;7.10;;;4.78;;
7104;SDS011;3594;42.152;24.714;2023-05-07T04:30:45;7.05;;;4.53;;
7104;SDS011;3594;42.152;24.714;2023-05-07T04:33:11;6.90;;;4.50;;
7104;SDS011;3594;42.152;24.714;2023-05-07T04:35:37;7.20;;;4.40;;
7104;SDS011;3594;42.152;24.714;2023-05-07T04:38:02;6.45;;;4.70;;
7104;SDS011;3594;42.152;24.714;2023-05-07T04:40:28;6.97;;;4.85;;
7104;SDS011;3594;42.152;24.714;2023-05-07T04:42:54;8.85;;;5.47;;
7104;SDS011;3594;42.152;24.714;2023-05-07T04:45:19;8.20;;;5.38;;
7104;SDS011;3594;42.152;24.714;2023-05-07T04:47:46;8.60;;;5.30;;
7104;SDS011;3594;42.152;24.714;2023-05-07T04:50:11;8.13;;;4.65;;
7104;SDS011;3594;42.152;24.714;2023-05-07T04:52:37;8.38;;;4.97;;
7104;SDS011;3594;42.152;24.714;2023-05-07T04:55:02;9.60;;;5.18;;
7104;SDS011;3594;42.152;24.714;2023-05-07T04:57:28;7.78;;;4.60;;
7104;SDS011;3594;42.152;24.714;2023-05-07T04:59:53;9.88;;;5.35;;
7104;SDS011;3594;42.152;24.714;2023-05-07T05:02:19;7.63;;;4.95;;
7104;SDS011;3594;42.152;24.714;2023-05-07T05:04:44;7.90;;;4.88;;
7104;SDS011;3594;42.152;24.714;2023-05-07T05:07:10;8.65;;;5.15;;
7104;SDS011;3594;42.152;24.714;2023-05-07T05:09:35;9.88;;;5.25;;
7104;SDS011;3594;42.152;24.714;2023-05-07T05:12:00;7.63;;;5.15;;
7104;SDS011;3594;42.152;24.714;2023-05-07T05:14:26;8.05;;;5.00;;
7104;SDS011;3594;42.152;24.714;2023-05-07T05:16:51;7.70;;;4.50;;
7104;SDS011;3594;42.152;24.714;2023-05-07T05:19:16;8.75;;;5.18;;
7104;SDS011;3594;42.152;24.714;2023-05-07T05:21:42;8.20;;;4.50;;
7104;SDS011;3594;42.152;24.714;2023-05-07T05:24:07;7.40;;;5.15;;
7104;SDS011;3594;42.152;24.714;2023-05-07T05:26:33;8.02;;;4.85;;
7104;SDS011;3594;42.152;24.714;2023-05-07T05:28:59;8.48;;;5.03;;
7104;SDS011;3594;42.152;24.714;2023-05-07T05:31:24;8.45;;;5.13;;
7104;SDS011;3594;42.152;24.714;2023-05-07T05:33:50;8.52;;;5.10;;
7104;SDS011;3594;42.152;24.714;2023-05-07T05:36:16;7.82;;;5.05;;
7104;SDS011;3594;42.152;24.714;2023-05-07T05:38:41;11.02;;;7.13;;
7104;SDS011;3594;42.152;24.714;2023-05-07T05:41:07;7.15;;;4.72;;
7104;SDS011;3594;42.152;24.714;2023-05-07T05:43:32;8.48;;;4.90;;
7104;SDS011;3594;42.152;24.714;2023-05-07T05:45:57;7.57;;;4.80;;
7104;SDS011;3594;42.152;24.714;2023-05-07T05:48:23;7.88;;;4.78;;
7104;SDS011;3594;42.152;24.714;2023-05-07T05:50:49;9.30;;;5.35;;
7104;SDS011;3594;42.152;24.714;2023-05-07T05:53:14;6.63;;;4.63;;
7104;SDS011;3594;42.152;24.714;2023-05-07T05:55:40;8.13;;;5.22;;
7104;SDS011;3594;42.152;24.714;2023-05-07T05:58:06;7.63;;;4.70;;
7104;SDS011;3594;42.152;24.714;2023-05-07T06:00:32;8.43;;;4.78;;
7104;SDS011;3594;42.152;24.714;2023-05-07T06:02:57;12.27;;;5.22;;
7104;SDS011;3594;42.152;24.714;2023-05-07T06:05:23;8.77;;;5.47;;
7104;SDS011;3594;42.152;24.714;2023-05-07T06:07:48;9.45;;;4.70;;
7104;SDS011;3594;42.152;24.714;2023-05-07T06:10:13;6.47;;;4.25;;
7104;SDS011;3594;42.152;24.714;2023-05-07T06:12:39;7.68;;;4.90;;
7104;SDS011;3594;42.152;24.714;2023-05-07T06:15:05;9.32;;;4.95;;
7104;SDS011;3594;42.152;24.714;2023-05-07T06:17:31;7.18;;;4.47;;
7104;SDS011;3594;42.152;24.714;2023-05-07T06:19:56;7.75;;;4.60;;
7104;SDS011;3594;42.152;24.714;2023-05-07T06:22:21;8.45;;;4.88;;
7104;SDS011;3594;42.152;24.714;2023-05-07T06:24:47;7.07;;;4.43;;
7104;SDS011;3594;42.152;24.714;2023-05-07T06:27:12;6.75;;;4.35;;
7104;SDS011;3594;42.152;24.714;2023-05-07T06:29:38;10.57;;;4.90;;
7104;SDS011;3594;42.152;24.714;2023-05-07T06:32:09;7.63;;;4.55;;
7104;SDS011;3594;42.152;24.714;2023-05-07T06:34:36;7.65;;;4.85;;
7104;SDS011;3594;42.152;24.714;2023-05-07T06:37:02;6.88;;;4.50;;
7104;SDS011;3594;42.152;24.714;2023-05-07T06:39:27;10.25;;;4.95;;
7104;SDS011;3594;42.152;24.714;2023-05-07T06:41:53;7.03;;;4.70;;
7104;SDS011;3594;42.152;24.714;2023-05-07T06:44:19;6.00;;;4.32;;
7104;SDS011;3594;42.152;24.714;2023-05-07T06:46:44;6.75;;;4.50;;
7104;SDS011;3594;42.152;24.714;2023-05-07T06:49:10;8.80;;;4.85;;
7104;SDS011;3594;42.152;24.714;2023-05-07T06:51:36;7.30;;;4.60;;
7104;SDS011;3594;42.152;24.714;2023-05-07T06:54:01;6.65;;;4.00;;
7104;SDS011;3594;42.152;24.714;2023-05-07T06:56:27;5.35;;;3.97;;
7104;SDS011;3594;42.152;24.714;2023-05-07T06:58:52;6.65;;;4.57;;
7104;SDS011;3594;42.152;24.714;2023-05-07T07:01:17;7.10;;;4.13;;
7104;SDS011;3594;42.152;24.714;2023-05-07T07:03:43;6.75;;;4.05;;
7104;SDS011;3594;42.152;24.714;2023-05-07T07:06:08;7.50;;;4.68;;
7104;SDS011;3594;42.152;24.714;2023-05-07T07:08:34;6.20;;;4.07;;
7104;SDS011;3594;42.152;24.714;2023-05-07T07:10:59;7.82;;;4.28;;
7104;SDS011;3594;42.152;24.714;2023-05-07T07:13:25;7.43;;;4.45;;
7104;SDS011;3594;42.152;24.714;2023-05-07T07:15:51;9.23;;;5.22;;
7104;SDS011;3594;42.152;24.714;2023-05-07T07:18:17;7.38;;;4.90;;
7104;SDS011;3594;42.152;24.714;2023-05-07T07:20:42;7.85;;;4.75;;
7104;SDS011;3594;42.152;24.714;2023-05-07T07:23:09;6.28;;;4.25;;
7104;SDS011;3594;42.152;24.714;2023-05-07T07:25:34;5.38;;;4.00;;
7104;SDS011;3594;42.152;24.714;2023-05-07T07:28:00;5.35;;;4.03;;
7104;SDS011;3594;42.152;24.714;2023-05-07T07:30:25;5.45;;;4.03;;
7104;SDS011;3594;42.152;24.714;2023-05-07T07:32:51;7.32;;;4.28;;
7104;SDS011;3594;42.152;24.714;2023-05-07T07:35:17;7.13;;;4.50;;
7104;SDS011;3594;42.152;24.714;2023-05-07T07:37:43;5.22;;;3.90;;
7104;SDS011;3594;42.152;24.714;2023-05-07T07:40:08;5.30;;;4.00;;
7104;SDS011;3594;42.152;24.714;2023-05-07T07:42:34;6.85;;;4.30;;
7104;SDS011;3594;42.152;24.714;2023-05-07T07:44:59;7.50;;;4.63;;
7104;SDS011;3594;42.152;24.714;2023-05-07T07:47:25;6.55;;;4.70;;
7104;SDS011;3594;42.152;24.714;2023-05-07T07:49:50;6.65;;;4.50;;
7104;SDS011;3594;42.152;24.714;2023-05-07T07:52:15;8.63;;;4.75;;
7104;SDS011;3594;42.152;24.714;2023-05-07T07:54:41;7.05;;;4.50;;
7104;SDS011;3594;42.152;24.714;2023-05-07T07:57:06;9.18;;;4.90;;
7104;SDS011;3594;42.152;24.714;2023-05-07T07:59:32;7.15;;;4.88;;
7104;SDS011;3594;42.152;24.714;2023-05-07T08:01:57;9.02;;;5.25;;
7104;SDS011;3594;42.152;24.714;2023-05-07T08:04:22;7.60;;;4.82;;
7104;SDS011;3594;42.152;24.714;2023-05-07T08:06:48;6.95;;;4.50;;
7104;SDS011;3594;42.152;24.714;2023-05-07T08:09:13;8.52;;;5.32;;
7104;SDS011;3594;42.152;24.714;2023-05-07T08:11:39;10.30;;;5.35;;
7104;SDS011;3594;42.152;24.714;2023-05-07T08:14:04;8.20;;;4.68;;
7104;SDS011;3594;42.152;24.714;2023-05-07T08:16:30;6.82;;;4.40;;
7104;SDS011;3594;42.152;24.714;2023-05-07T08:18:55;8.65;;;5.10;;
7104;SDS011;3594;42.152;24.714;2023-05-07T08:21:21;6.68;;;4.35;;
7104;SDS011;3594;42.152;24.714;2023-05-07T08:23:47;7.97;;;4.18;;
7104;SDS011;3594;42.152;24.714;2023-05-07T08:26:13;7.05;;;4.57;;
7104;SDS011;3594;42.152;24.714;2023-05-07T08:28:38;5.65;;;3.80;;
7104;SDS011;3594;42.152;24.714;2023-05-07T08:31:04;6.63;;;4.43;;
7104;SDS011;3594;42.152;24.714;2023-05-07T08:33:30;7.07;;;4.30;;
7104;SDS011;3594;42.152;24.714;2023-05-07T08:35:56;5.90;;;3.85;;
7104;SDS011;3594;42.152;24.714;2023-05-07T08:38:21;7.35;;;4.00;;
7104;SDS011;3594;42.152;24.714;2023-05-07T08:40:47;5.72;;;4.03;;
7104;SDS011;3594;42.152;24.714;2023-05-07T08:43:13;5.18;;;3.50;;
7104;SDS011;3594;42.152;24.714;2023-05-07T08:45:39;4.60;;;3.63;;
7104;SDS011;3594;42.152;24.714;2023-05-07T08:48:08;5.38;;;3.80;;
7104;SDS011;3594;42.152;24.714;2023-05-07T08:50:39;5.43;;;3.53;;
7104;SDS011;3594;42.152;24.714;2023-05-07T08:53:04;5.05;;;3.58;;
7104;SDS011;3594;42.152;24.714;2023-05-07T08:55:30;5.88;;;3.42;;
7104;SDS011;3594;42.152;24.714;2023-05-07T08:57:56;6.45;;;4.10;;
7104;SDS011;3594;42.152;24.714;2023-05-07T09:00:21;6.18;;;4.10;;
7104;SDS011;3594;42.152;24.714;2023-05-07T09:02:47;4.65;;;3.35;;
7104;SDS011;3594;42.152;24.714;2023-05-07T09:05:12;4.85;;;3.42;;
7104;SDS011;3594;42.152;24.714;2023-05-07T09:07:38;3.97;;;3.00;;
7104;SDS011;3594;42.152;24.714;2023-05-07T09:10:04;3.53;;;2.90;;
7104;SDS011;3594;42.152;24.714;2023-05-07T09:12:30;4.38;;;3.08;;
7104;SDS011;3594;42.152;24.714;2023-05-07T09:14:56;4.65;;;2.97;;
7104;SDS011;3594;42.152;24.714;2023-05-07T09:17:21;8.57;;;2.95;;
7104;SDS011;3594;42.152;24.714;2023-05-07T09:19:47;4.40;;;2.95;;
7104;SDS011;3594;42.152;24.714;2023-05-07T09:22:13;6.35;;;2.70;;
7104;SDS011;3594;42.152;24.714;2023-05-07T09:24:38;4.55;;;2.50;;
7104;SDS011;3594;42.152;24.714;2023-05-07T09:27:04;2.55;;;2.20;;
7104;SDS011;3594;42.152;24.714;2023-05-07T09:29:31;3.42;;;2.38;;
7104;SDS011;3594;42.152;24.714;2023-05-07T09:32:05;2.92;;;2.55;;
7104;SDS011;3594;42.152;24.714;2023-05-07T09:34:32;3.08;;;2.60;;
7104;SDS011;3594;42.152;24.714;2023-05-07T09:37:01;4.18;;;2.70;;
7104;SDS011;3594;42.152;24.714;2023-05-07T09:42:06;3.72;;;2.65;;
7104;SDS011;3594;42.152;24.714;2023-05-07T09:44:31;3.60;;;2.42;;
7104;SDS011;3594;42.152;24.714;2023-05-07T09:46:57;3.50;;;2.70;;
7104;SDS011;3594;42.152;24.714;2023-05-07T09:49:25;5.97;;;3.40;;
7104;SDS011;3594;42.152;24.714;2023-05-07T09:51:55;3.53;;;2.67;;
7104;SDS011;3594;42.152;24.714;2023-05-07T09:54:22;7.75;;;3.97;;
7104;SDS011;3594;42.152;24.714;2023-05-07T09:56:48;3.63;;;2.78;;
7104;SDS011;3594;42.152;24.714;2023-05-07T09:59:14;5.45;;;2.95;;
7104;SDS011;3594;42.152;24.714;2023-05-07T10:01:42;3.45;;;2.72;;
7104;SDS011;3594;42.152;24.714;2023-05-07T10:04:08;2.97;;;2.58;;
7104;SDS011;3594;42.152;24.714;2023-05-07T10:06:35;3.88;;;2.70;;
7104;SDS011;3594;42.152;24.714;2023-05-07T10:09:02;5.63;;;2.72;;
7104;SDS011;3594;42.152;24.714;2023-05-07T10:11:28;3.53;;;2.97;;
7104;SDS011;3594;42.152;24.714;2023-05-07T10:13:53;5.72;;;2.90;;
7104;SDS011;3594;42.152;24.714;2023-05-07T10:16:20;4.20;;;3.20;;
7104;SDS011;3594;42.152;24.714;2023-05-07T10:18:48;4.72;;;3.20;;
7104;SDS011;3594;42.152;24.714;2023-05-07T10:21:19;4.25;;;3.17;;
7104;SDS011;3594;42.152;24.714;2023-05-07T10:23:49;3.67;;;3.00;;
7104;SDS011;3594;42.152;24.714;2023-05-07T10:26:18;3.38;;;2.60;;
7104;SDS011;3594;42.152;24.714;2023-05-07T10:28:48;3.88;;;2.75;;
7104;SDS011;3594;42.152;24.714;2023-05-07T10:33:53;4.05;;;2.60;;
7104;SDS011;3594;42.152;24.714;2023-05-07T10:36:21;4.22;;;3.00;;
7104;SDS011;3594;42.152;24.714;2023-05-07T10:38:48;3.80;;;3.10;;
7104;SDS011;3594;42.152;24.714;2023-05-07T10:41:14;3.83;;;3.05;;
7104;SDS011;3594;42.152;24.714;2023-05-07T10:43:42;3.30;;;2.65;;
7104;SDS011;3594;42.152;24.714;2023-05-07T10:46:10;3.75;;;2.72;;
7104;SDS011;3594;42.152;24.714;2023-05-07T10:51:28;3.38;;;2.88;;
7104;SDS011;3594;42.152;24.714;2023-05-07T10:56:35;3.63;;;2.63;;
7104;SDS011;3594;42.152;24.714;2023-05-07T11:01:55;3.70;;;2.72;;
7104;SDS011;3594;42.152;24.714;2023-05-07T11:04:22;3.25;;;2.50;;
7104;SDS011;3594;42.152;24.714;2023-05-07T11:15:05;4.13;;;3.08;;
7104;SDS011;3594;42.152;24.714;2023-05-07T11:17:31;3.20;;;2.72;;
7104;SDS011;3594;42.152;24.714;2023-05-07T11:19:59;4.75;;;3.53;;
7104;SDS011;3594;42.152;24.714;2023-05-07T11:25:01;5.18;;;2.50;;
7104;SDS011;3594;42.152;24.714;2023-05-07T11:27:27;3.58;;;2.38;;
7104;SDS011;3594;42.152;24.714;2023-05-07T11:29:54;4.22;;;3.10;;
7104;SDS011;3594;42.152;24.714;2023-05-07T11:32:27;2.67;;;2.22;;
7104;SDS011;3594;42.152;24.714;2023-05-07T11:34:54;3.85;;;2.90;;
7104;SDS011;3594;42.152;24.714;2023-05-07T11:37:21;3.97;;;2.53;;
7104;SDS011;3594;42.152;24.714;2023-05-07T11:39:47;3.17;;;2.35;;
7104;SDS011;3594;42.152;24.714;2023-05-07T11:42:27;3.55;;;2.45;;
7104;SDS011;3594;42.152;24.714;2023-05-07T11:44:54;4.18;;;2.80;;
7104;SDS011;3594;42.152;24.714;2023-05-07T11:47:19;3.42;;;2.45;;
7104;SDS011;3594;42.152;24.714;2023-05-07T11:49:47;4.03;;;2.55;;
7104;SDS011;3594;42.152;24.714;2023-05-07T11:52:17;4.05;;;2.40;;
7104;SDS011;3594;42.152;24.714;2023-05-07T11:54:50;3.53;;;2.58;;
7104;SDS011;3594;42.152;24.714;2023-05-07T11:57:15;3.50;;;2.60;;
7104;SDS011;3594;42.152;24.714;2023-05-07T11:59:41;4.18;;;2.50;;
7104;SDS011;3594;42.152;24.714;2023-05-07T12:02:09;4.82;;;2.88;;
7104;SDS011;3594;42.152;24.714;2023-05-07T12:04:35;3.53;;;2.40;;
7104;SDS011;3594;42.152;24.714;2023-05-07T12:07:00;3.70;;;2.33;;
7104;SDS011;3594;42.152;24.714;2023-05-07T12:09:26;3.67;;;2.60;;
7104;SDS011;3594;42.152;24.714;2023-05-07T12:11:51;2.53;;;2.33;;
7104;SDS011;3594;42.152;24.714;2023-05-07T12:14:17;3.47;;;2.50;;
7104;SDS011;3594;42.152;24.714;2023-05-07T12:16:43;3.78;;;2.60;;
7104;SDS011;3594;42.152;24.714;2023-05-07T12:19:10;3.10;;;2.28;;
7104;SDS011;3594;42.152;24.714;2023-05-07T12:21:39;3.38;;;2.38;;
7104;SDS011;3594;42.152;24.714;2023-05-07T12:24:05;3.85;;;2.65;;
7104;SDS011;3594;42.152;24.714;2023-05-07T12:26:31;3.45;;;2.40;;
7104;SDS011;3594;42.152;24.714;2023-05-07T12:28:59;4.82;;;2.60;;
7104;SDS011;3594;42.152;24.714;2023-05-07T12:31:27;3.70;;;2.85;;
7104;SDS011;3594;42.152;24.714;2023-05-07T12:33:53;3.60;;;2.70;;
7104;SDS011;3594;42.152;24.714;2023-05-07T12:36:18;3.38;;;2.50;;
7104;SDS011;3594;42.152;24.714;2023-05-07T12:38:46;4.20;;;2.75;;
7104;SDS011;3594;42.152;24.714;2023-05-07T12:41:14;5.53;;;2.78;;
7104;SDS011;3594;42.152;24.714;2023-05-07T12:43:42;5.30;;;2.90;;
7104;SDS011;3594;42.152;24.714;2023-05-07T12:46:09;4.15;;;2.83;;
7104;SDS011;3594;42.152;24.714;2023-05-07T12:48:38;3.88;;;2.88;;
7104;SDS011;3594;42.152;24.714;2023-05-07T12:51:08;5.13;;;2.80;;
7104;SDS011;3594;42.152;24.714;2023-05-07T12:53:39;3.47;;;2.88;;
7104;SDS011;3594;42.152;24.714;2023-05-07T12:56:05;3.88;;;2.80;;
7104;SDS011;3594;42.152;24.714;2023-05-07T12:58:32;3.58;;;2.65;;
7104;SDS011;3594;42.152;24.714;2023-05-07T13:01:00;4.78;;;3.03;;
7104;SDS011;3594;42.152;24.714;2023-05-07T13:03:31;3.72;;;2.58;;
7104;SDS011;3594;42.152;24.714;2023-05-07T13:05:59;4.28;;;2.97;;
7104;SDS011;3594;42.152;24.714;2023-05-07T13:08:35;3.60;;;2.72;;
7104;SDS011;3594;42.152;24.714;2023-05-07T13:11:06;3.22;;;2.42;;
7104;SDS011;3594;42.152;24.714;2023-05-07T13:13:33;3.83;;;2.78;;
7104;SDS011;3594;42.152;24.714;2023-05-07T13:16:00;4.32;;;2.78;;
7104;SDS011;3594;42.152;24.714;2023-05-07T13:18:29;3.55;;;2.70;;
7104;SDS011;3594;42.152;24.714;2023-05-07T13:20:55;4.22;;;2.70;;
7104;SDS011;3594;42.152;24.714;2023-05-07T13:23:21;3.55;;;2.55;;
7104;SDS011;3594;42.152;24.714;2023-05-07T13:25:47;3.95;;;2.67;;
7104;SDS011;3594;42.152;24.714;2023-05-07T13:28:13;4.00;;;2.80;;
7104;SDS011;3594;42.152;24.714;2023-05-07T13:30:38;3.42;;;2.50;;
7104;SDS011;3594;42.152;24.714;2023-05-07T13:33:05;2.63;;;2.15;;
7104;SDS011;3594;42.152;24.714;2023-05-07T13:35:31;5.00;;;2.50;;
7104;SDS011;3594;42.152;24.714;2023-05-07T13:37:56;3.58;;;2.50;;
7104;SDS011;3594;42.152;24.714;2023-05-07T13:40:22;4.05;;;2.13;;
7104;SDS011;3594;42.152;24.714;2023-05-07T13:42:48;3.90;;;2.53;;
7104;SDS011;3594;42.152;24.714;2023-05-07T13:45:14;2.85;;;2.40;;
7104;SDS011;3594;42.152;24.714;2023-05-07T13:47:40;3.15;;;2.35;;
7104;SDS011;3594;42.152;24.714;2023-05-07T13:50:07;3.47;;;2.10;;
7104;SDS011;3594;42.152;24.714;2023-05-07T13:52:33;3.50;;;2.40;;
7104;SDS011;3594;42.152;24.714;2023-05-07T13:54:59;3.15;;;2.40;;
7104;SDS011;3594;42.152;24.714;2023-05-07T13:57:24;3.45;;;2.40;;
7104;SDS011;3594;42.152;24.714;2023-05-07T13:59:50;2.78;;;2.25;;
7104;SDS011;3594;42.152;24.714;2023-05-07T14:02:15;3.72;;;2.40;;
7104;SDS011;3594;42.152;24.714;2023-05-07T14:04:40;4.93;;;2.22;;
7104;SDS011;3594;42.152;24.714;2023-05-07T14:07:06;4.95;;;2.33;;
7104;SDS011;3594;42.152;24.714;2023-05-07T14:09:31;2.80;;;2.10;;
7104;SDS011;3594;42.152;24.714;2023-05-07T14:11:57;3.75;;;2.28;;
7104;SDS011;3594;42.152;24.714;2023-05-07T14:14:22;3.75;;;2.20;;
7104;SDS011;3594;42.152;24.714;2023-05-07T14:16:47;5.30;;;2.85;;
7104;SDS011;3594;42.152;24.714;2023-05-07T14:19:13;3.22;;;2.15;;
7104;SDS011;3594;42.152;24.714;2023-05-07T14:21:38;2.60;;;1.98;;
7104;SDS011;3594;42.152;24.714;2023-05-07T14:24:05;2.42;;;2.03;;
7104;SDS011;3594;42.152;24.714;2023-05-07T14:26:32;3.22;;;2.40;;
7104;SDS011;3594;42.152;24.714;2023-05-07T14:28:58;2.55;;;1.90;;
7104;SDS011;3594;42.152;24.714;2023-05-07T14:31:24;2.78;;;2.20;;
7104;SDS011;3594;42.152;24.714;2023-05-07T14:33:49;2.75;;;2.10;;
7104;SDS011;3594;42.152;24.714;2023-05-07T14:36:16;3.17;;;2.58;;
7104;SDS011;3594;42.152;24.714;2023-05-07T14:38:49;3.83;;;2.33;;
7104;SDS011;3594;42.152;24.714;2023-05-07T14:41:15;3.30;;;2.25;;
7104;SDS011;3594;42.152;24.714;2023-05-07T14:43:41;3.22;;;2.30;;
7104;SDS011;3594;42.152;24.714;2023-05-07T14:46:06;3.08;;;2.22;;
7104;SDS011;3594;42.152;24.714;2023-05-07T14:48:31;2.60;;;2.00;;
7104;SDS011;3594;42.152;24.714;2023-05-07T14:50:57;3.13;;;2.20;;
7104;SDS011;3594;42.152;24.714;2023-05-07T14:53:23;2.75;;;2.13;;
7104;SDS011;3594;42.152;24.714;2023-05-07T14:55:51;2.78;;;2.00;;
7104;SDS011;3594;42.152;24.714;2023-05-07T14:58:17;3.10;;;2.35;;
7104;SDS011;3594;42.152;24.714;2023-05-07T15:00:42;2.47;;;1.95;;
7104;SDS011;3594;42.152;24.714;2023-05-07T15:03:09;2.35;;;2.00;;
7104;SDS011;3594;42.152;24.714;2023-05-07T15:05:35;2.17;;;1.75;;
7104;SDS011;3594;42.152;24.714;2023-05-07T15:08:01;2.45;;;1.95;;
7104;SDS011;3594;42.152;24.714;2023-05-07T15:10:27;3.70;;;2.30;;
7104;SDS011;3594;42.152;24.714;2023-05-07T15:12:53;3.60;;;2.20;;
7104;SDS011;3594;42.152;24.714;2023-05-07T15:15:18;3.85;;;2.42;;
7104;SDS011;3594;42.152;24.714;2023-05-07T15:17:43;2.30;;;1.80;;